Time;durP1;ratioP1;P1;durP2;ratioP2;P2;SDS_P1;SDS_P2;PMS_P1;PMS_P2;Temp;Humidity;BMP_temperature;BMP_pressure;BME280_temperature;BME280_humidity;BME280_pressure;Samples;Min_cycle;Max_cycle;Signal;HPM_P1;HPM_P2
2021/06/07 00:00:30;;;;;;;2.83;1.70;;;20.40;61.20;;;;;;5047476;28;20491;-77
2021/06/07 00:02:57;;;;;;;1.85;1.67;;;20.40;61.20;;;;;;5029839;28;20045;-77
2021/06/07 00:05:23;;;;;;;2.20;2.00;;;20.40;61.80;;;;;;5028530;28;20368;-77
2021/06/07 00:07:50;;;;;;;3.03;1.67;;;20.30;61.10;;;;;;5029810;28;20045;-77
2021/06/07 00:10:18;;;;;;;2.10;1.77;;;20.30;61.20;;;;;;5029569;28;20052;-76
2021/06/07 00:12:45;;;;;;;1.52;1.42;;;20.30;61.70;;;;;;5034075;28;20053;-76
2021/06/07 00:15:15;;;;;;;1.80;1.70;;;20.30;61.20;;;;;;5037789;28;20030;-76
2021/06/07 00:17:41;;;;;;;1.48;1.38;;;20.20;61.20;;;;;;5028127;28;20033;-76
2021/06/07 00:20:14;;;;;;;2.28;1.90;;;20.20;61.20;;;;;;5059109;28;20516;-76
2021/06/07 00:22:40;;;;;;;2.13;1.73;;;20.10;61.20;;;;;;5029297;28;20037;-76
2021/06/07 00:25:08;;;;;;;1.98;1.77;;;20.10;61.10;;;;;;5027805;28;20575;-75
2021/06/07 00:27:35;;;;;;;1.85;1.63;;;20.10;61.30;;;;;;5011449;28;20437;-75
2021/06/07 00:30:01;;;;;;;1.60;1.50;;;20.10;61.40;;;;;;5028895;28;20455;-76
2021/06/07 00:32:27;;;;;;;2.95;1.50;;;20.00;61.20;;;;;;5029487;28;20496;-75
2021/06/07 00:34:53;;;;;;;2.38;2.17;;;20.00;61.30;;;;;;5011313;28;20051;-76
2021/06/07 00:37:19;;;;;;;1.70;1.60;;;19.90;61.20;;;;;;5028082;28;20751;-75
2021/06/07 00:39:45;;;;;;;1.83;1.70;;;19.90;61.30;;;;;;5027838;28;20030;-78
2021/06/07 00:42:12;;;;;;;1.88;1.70;;;19.90;61.40;;;;;;5029322;28;20033;-74
2021/06/07 00:44:40;;;;;;;1.88;1.67;;;19.90;61.40;;;;;;5027216;28;20033;-74
2021/06/07 00:47:08;;;;;;;2.00;1.80;;;19.90;61.50;;;;;;5029663;28;20037;-75
2021/06/07 00:49:34;;;;;;;2.78;2.00;;;19.80;61.40;;;;;;5028524;28;20033;-74
2021/06/07 00:52:00;;;;;;;1.75;1.65;;;19.80;61.40;;;;;;5029380;28;20047;-74
2021/06/07 00:54:26;;;;;;;2.20;1.80;;;19.80;61.50;;;;;;5029539;28;20034;-75
2021/06/07 00:56:52;;;;;;;2.13;1.75;;;19.70;61.30;;;;;;5028125;28;20059;-75
2021/06/07 00:59:18;;;;;;;3.08;1.90;;;19.70;61.40;;;;;;5027511;28;20025;-76
2021/06/07 01:01:44;;;;;;;1.92;1.80;;;19.70;61.40;;;;;;5026316;28;20106;-74
2021/06/07 01:04:11;;;;;;;2.08;1.75;;;19.70;61.50;;;;;;5028059;28;20072;-76
2021/06/07 01:06:39;;;;;;;1.90;1.77;;;19.60;61.40;;;;;;5027209;28;20042;-74
2021/06/07 01:09:07;;;;;;;2.47;2.00;;;19.60;61.50;;;;;;5028254;28;20033;-75
2021/06/07 01:11:35;;;;;;;3.80;1.85;;;19.60;61.60;;;;;;5027178;28;20040;-75
2021/06/07 01:14:01;;;;;;;2.03;1.83;;;19.50;61.40;;;;;;5026555;28;20384;-74
2021/06/07 01:16:27;;;;;;;2.20;1.95;;;19.50;61.50;;;;;;5027269;28;20065;-76
2021/06/07 01:18:53;;;;;;;3.10;1.70;;;19.50;61.50;;;;;;5010500;28;20029;-75
2021/06/07 01:21:23;;;;;;;3.90;2.00;;;19.50;61.50;;;;;;5028170;28;20037;-75
2021/06/07 01:23:49;;;;;;;2.45;1.80;;;19.40;61.50;;;;;;5026598;28;20503;-75
2021/06/07 01:26:20;;;;;;;2.75;2.20;;;19.40;61.50;;;;;;5028251;28;20060;-74
2021/06/07 01:28:48;;;;;;;2.42;1.75;;;19.30;61.40;;;;;;5028261;28;20504;-73
2021/06/07 01:31:15;;;;;;;3.40;2.03;;;19.30;61.40;;;;;;5037611;28;20021;-75
2021/06/07 01:33:46;;;;;;;1.80;1.65;;;19.30;61.40;;;;;;5047948;28;20029;-74
2021/06/07 01:36:13;;;;;;;1.98;1.77;;;19.30;61.50;;;;;;5048043;28;20029;-76
2021/06/07 01:38:40;;;;;;;2.20;1.88;;;19.20;61.30;;;;;;5042077;28;20032;-76
2021/06/07 01:41:08;;;;;;;2.70;1.95;;;19.20;61.40;;;;;;5029819;28;20144;-77
2021/06/07 01:43:36;;;;;;;3.20;1.88;;;19.20;61.40;;;;;;5028380;28;20285;-77
2021/06/07 01:46:03;;;;;;;2.10;1.80;;;19.10;61.30;;;;;;5049410;22;20414;-81
2021/06/07 01:48:29;;;;;;;2.10;1.90;;;19.20;61.60;;;;;;5035274;28;20122;-83
2021/06/07 01:50:58;;;;;;;2.95;2.20;;;19.10;61.40;;;;;;5052718;28;20499;-83
2021/06/07 01:53:26;;;;;;;2.38;1.80;;;19.00;61.30;;;;;;5051949;28;20271;-83
2021/06/07 01:55:58;;;;;;;2.72;2.20;;;19.00;61.40;;;;;;5051461;28;20061;-82
2021/06/07 01:58:25;;;;;;;2.28;2.00;;;19.00;61.40;;;;;;5051256;28;20036;-83
2021/06/07 02:00:57;;;;;;;2.47;2.15;;;19.00;61.50;;;;;;5068264;28;20033;-83
2021/06/07 02:03:24;;;;;;;3.17;2.10;;;18.90;61.40;;;;;;5051061;28;20043;-84
2021/06/07 02:05:54;;;;;;;3.88;2.42;;;18.90;61.40;;;;;;5051461;28;20239;-85
2021/06/07 02:08:21;;;;;;;2.53;2.13;;;18.90;61.60;;;;;;5052903;28;20040;-82
2021/06/07 02:10:52;;;;;;;2.10;1.90;;;18.80;61.40;;;;;;5034696;28;20369;-83
2021/06/07 02:13:19;;;;;;;2.25;2.05;;;18.80;61.50;;;;;;5051332;28;20082;-82
2021/06/07 02:15:53;;;;;;;2.55;2.08;;;18.70;61.40;;;;;;5067680;28;20037;-82
2021/06/07 02:18:19;;;;;;;2.25;1.80;;;18.70;61.60;;;;;;5067668;28;20483;-81
2021/06/07 02:20:45;;;;;;;3.53;2.13;;;18.70;61.60;;;;;;5050835;28;20476;-81
2021/06/07 02:23:11;;;;;;;2.13;1.88;;;18.60;61.50;;;;;;5051949;28;20091;-82
2021/06/07 02:25:37;;;;;;;2.13;1.90;;;18.60;61.50;;;;;;5051118;28;20123;-81
2021/06/07 02:28:08;;;;;;;2.13;1.90;;;18.50;61.40;;;;;;5067756;28;20472;-85
2021/06/07 02:30:34;;;;;;;2.67;2.00;;;18.50;61.40;;;;;;5050504;28;20051;-83
2021/06/07 02:33:00;;;;;;;2.13;1.83;;;18.50;61.50;;;;;;5067523;28;20547;-82
2021/06/07 02:35:26;;;;;;;2.30;2.10;;;18.40;61.40;;;;;;5067363;28;20035;-83
2021/06/07 02:37:55;;;;;;;2.67;2.00;;;18.40;61.50;;;;;;5052171;28;20029;-81
2021/06/07 02:40:27;;;;;;;2.45;2.00;;;18.40;61.50;;;;;;5051065;28;20074;-82
2021/06/07 02:42:54;;;;;;;2.63;2.08;;;18.40;61.60;;;;;;5050847;28;20395;-84
2021/06/07 02:45:20;;;;;;;2.08;1.88;;;18.30;61.40;;;;;;5067012;28;20120;-82
2021/06/07 02:47:48;;;;;;;2.42;2.13;;;18.30;61.50;;;;;;5051852;28;20049;-82
2021/06/07 02:50:18;;;;;;;2.45;1.98;;;18.20;61.40;;;;;;5051625;28;20480;-82
2021/06/07 02:52:48;;;;;;;2.72;2.15;;;18.20;61.40;;;;;;5033821;28;20029;-82
2021/06/07 02:55:27;;;;;;;2.50;2.30;;;18.20;61.50;;;;;;5066824;28;20032;-81
2021/06/07 02:57:54;;;;;;;2.17;1.98;;;18.20;61.70;;;;;;5050246;28;20048;-82
2021/06/07 03:00:27;;;;;;;3.17;2.00;;;18.10;61.40;;;;;;5051191;28;20025;-82
2021/06/07 03:02:55;;;;;;;4.67;1.93;;;18.10;61.60;;;;;;5051638;28;20025;-81
2021/06/07 03:05:21;;;;;;;2.10;1.90;;;18.00;61.40;;;;;;5066693;28;20389;-82
2021/06/07 03:07:47;;;;;;;3.55;2.33;;;18.00;61.40;;;;;;5051424;28;20048;-82
2021/06/07 03:10:13;;;;;;;2.90;2.17;;;18.00;61.60;;;;;;5033159;28;20028;-81
2021/06/07 03:12:39;;;;;;;2.25;1.95;;;18.00;61.60;;;;;;5050384;28;20381;-81
2021/06/07 03:15:08;;;;;;;3.58;2.15;;;17.90;61.50;;;;;;5051060;28;20487;-81
2021/06/07 03:17:34;;;;;;;3.63;2.13;;;17.90;61.60;;;;;;5049893;28;20028;-81
2021/06/07 03:20:00;;;;;;;2.45;2.10;;;17.90;61.60;;;;;;5016940;28;20079;-83
2021/06/07 03:22:26;;;;;;;2.38;1.92;;;17.80;61.50;;;;;;5049823;28;20029;-82
2021/06/07 03:24:53;;;;;;;3.58;2.38;;;17.80;61.60;;;;;;5032733;28;20021;-82
2021/06/07 03:27:19;;;;;;;2.50;2.28;;;17.80;61.70;;;;;;5051358;28;20127;-83
2021/06/07 03:29:46;;;;;;;3.53;2.03;;;17.70;61.60;;;;;;5051251;28;20087;-82
2021/06/07 03:32:13;;;;;;;2.60;2.35;;;17.70;61.70;;;;;;5033522;28;20067;-81
2021/06/07 03:34:39;;;;;;;3.08;2.40;;;17.70;61.70;;;;;;5066448;28;20080;-82
2021/06/07 03:37:05;;;;;;;3.38;2.53;;;17.60;61.60;;;;;;5051046;28;20080;-82
2021/06/07 03:39:32;;;;;;;2.97;2.58;;;17.60;61.70;;;;;;5051138;28;20033;-82
2021/06/07 03:41:58;;;;;;;4.88;2.45;;;17.50;61.50;;;;;;5051400;28;20137;-84
2021/06/07 03:44:24;;;;;;;3.17;2.72;;;17.50;61.60;;;;;;5050606;28;20465;-82
2021/06/07 03:46:50;;;;;;;2.80;2.60;;;17.50;61.60;;;;;;5050892;28;20044;-83
2021/06/07 03:49:16;;;;;;;2.92;2.33;;;17.50;61.70;;;;;;5050920;28;20120;-83
2021/06/07 03:51:42;;;;;;;2.90;2.67;;;17.50;61.70;;;;;;5066203;28;20083;-82
2021/06/07 03:54:09;;;;;;;3.80;3.08;;;17.40;61.60;;;;;;5066427;28;20032;-84
2021/06/07 03:56:45;;;;;;;3.20;2.40;;;17.40;61.60;;;;;;5049829;28;20112;-84
2021/06/07 03:59:14;;;;;;;3.15;2.70;;;17.40;61.70;;;;;;5017133;28;20499;-83
2021/06/07 04:01:41;;;;;;;3.15;2.50;;;17.30;61.50;;;;;;5066136;28;20494;-84
2021/06/07 04:04:07;;;;;;;4.82;2.72;;;17.30;61.50;;;;;;5051491;28;20140;-83
2021/06/07 04:06:33;;;;;;;4.32;2.58;;;17.30;61.60;;;;;;5066098;28;20359;-83
2021/06/07 04:09:01;;;;;;;2.78;2.30;;;17.30;61.60;;;;;;5049579;28;20041;-83
2021/06/07 04:11:28;;;;;;;3.22;2.78;;;17.20;61.50;;;;;;5066342;28;20036;-84
2021/06/07 04:13:55;;;;;;;2.83;2.45;;;17.20;61.60;;;;;;5050935;28;20086;-84
2021/06/07 04:16:21;;;;;;;3.05;2.70;;;17.20;61.60;;;;;;5066065;28;20041;-83
2021/06/07 04:18:47;;;;;;;2.60;2.28;;;17.20;61.70;;;;;;5051257;28;20039;-81
2021/06/07 04:21:13;;;;;;;3.75;2.70;;;17.10;61.60;;;;;;5050633;28;20108;-82
2021/06/07 04:23:39;;;;;;;4.85;2.78;;;17.10;61.60;;;;;;5050409;28;20155;-82
2021/06/07 04:26:05;;;;;;;4.45;2.80;;;17.10;61.70;;;;;;5032877;28;20116;-82
2021/06/07 04:28:33;;;;;;;3.67;2.67;;;17.10;61.70;;;;;;5065602;28;20434;-81
2021/06/07 04:31:00;;;;;;;2.63;2.42;;;17.00;61.60;;;;;;5066049;28;20059;-82
2021/06/07 04:33:26;;;;;;;4.50;2.88;;;17.00;61.60;;;;;;5066092;28;20052;-82
2021/06/07 04:35:52;;;;;;;3.67;2.75;;;17.00;61.60;;;;;;5033212;28;20123;-82
2021/06/07 04:38:18;;;;;;;3.88;2.78;;;17.00;61.60;;;;;;5019852;28;20116;-83
2021/06/07 04:40:44;;;;;;;3.58;2.50;;;17.00;61.70;;;;;;5052676;28;20083;-82
2021/06/07 04:43:12;;;;;;;5.05;3.08;;;17.00;61.70;;;;;;5069784;28;20035;-83
2021/06/07 04:45:40;;;;;;;3.25;2.90;;;16.90;61.50;;;;;;5054525;28;20388;-83
2021/06/07 04:48:07;;;;;;;3.40;2.80;;;17.00;61.80;;;;;;5054946;28;20057;-84
2021/06/07 04:50:35;;;;;;;3.63;3.13;;;16.90;61.60;;;;;;5043042;28;20058;-82
2021/06/07 04:53:03;;;;;;;3.13;2.75;;;16.90;61.60;;;;;;5010924;28;20037;-82
2021/06/07 04:55:33;;;;;;;4.25;2.53;;;16.90;61.60;;;;;;5010997;28;20032;-83
2021/06/07 04:58:20;;;;;;;3.80;3.10;;;16.90;61.70;;;;;;5047561;28;20034;-83
2021/06/07 05:00:50;;;;;;;3.35;2.78;;;16.90;61.70;;;;;;5045740;28;20029;-83
2021/06/07 05:03:17;;;;;;;3.08;2.70;;;16.90;61.70;;;;;;5027327;28;20037;-82
2021/06/07 05:05:44;;;;;;;5.90;3.45;;;16.90;61.70;;;;;;5061143;28;20021;-84
2021/06/07 05:08:10;;;;;;;4.43;3.38;;;16.90;61.70;;;;;;5029302;28;20474;-82
2021/06/07 05:10:36;;;;;;;4.45;2.78;;;16.90;61.70;;;;;;5010930;28;20029;-84
2021/06/07 05:13:02;;;;;;;3.75;2.47;;;16.80;61.50;;;;;;5028385;28;20065;-83
2021/06/07 05:15:28;;;;;;;3.38;2.65;;;16.90;61.70;;;;;;5027464;28;20052;-83
2021/06/07 05:17:54;;;;;;;3.25;2.95;;;16.90;61.70;;;;;;5010852;28;20034;-84
2021/06/07 05:20:25;;;;;;;3.22;2.40;;;16.90;61.70;;;;;;5027110;28;20061;-82
2021/06/07 05:22:52;;;;;;;4.80;3.53;;;16.80;61.60;;;;;;5027374;28;20346;-83
2021/06/07 05:25:21;;;;;;;4.18;2.65;;;16.90;61.80;;;;;;5010849;28;20489;-82
2021/06/07 05:27:50;;;;;;;4.32;3.33;;;16.90;61.80;;;;;;5010277;28;20045;-82
2021/06/07 05:30:18;;;;;;;3.50;3.00;;;16.90;61.80;;;;;;5027183;28;20042;-82
2021/06/07 05:32:44;;;;;;;4.88;3.88;;;16.90;61.80;;;;;;5027977;28;20190;-81
2021/06/07 05:35:12;;;;;;;5.22;3.55;;;16.90;61.80;;;;;;5010511;28;20381;-83
2021/06/07 05:37:38;;;;;;;3.75;2.85;;;16.90;61.80;;;;;;5027886;28;20405;-82
2021/06/07 05:40:07;;;;;;;3.55;3.25;;;17.00;62.50;;;;;;5010951;28;20354;-82
2021/06/07 05:42:33;;;;;;;5.63;3.53;;;17.00;62.10;;;;;;5026878;28;20041;-82
2021/06/07 05:44:59;;;;;;;3.65;3.03;;;17.00;62.00;;;;;;5043579;28;20378;-82
2021/06/07 05:47:25;;;;;;;5.03;3.47;;;17.10;62.20;;;;;;5059790;28;20045;-87
2021/06/07 05:49:51;;;;;;;4.57;3.22;;;17.20;62.30;;;;;;5060386;28;20029;-82
2021/06/07 05:52:17;;;;;;;9.32;3.47;;;17.20;62.30;;;;;;5026938;28;20060;-81
2021/06/07 05:54:43;;;;;;;5.82;3.17;;;17.30;62.50;;;;;;5028272;28;20103;-84
2021/06/07 05:57:10;;;;;;;4.55;3.40;;;17.40;62.60;;;;;;5027196;28;20369;-81
2021/06/07 05:59:37;;;;;;;3.60;3.30;;;17.40;62.50;;;;;;5027661;28;20033;-82
2021/06/07 06:02:07;;;;;;;4.63;3.50;;;17.50;62.50;;;;;;5026714;28;20400;-80
2021/06/07 06:04:35;;;;;;;4.72;3.17;;;17.60;62.60;;;;;;5028308;28;20045;-85
2021/06/07 06:07:02;;;;;;;4.45;3.20;;;17.70;62.70;;;;;;5025968;28;20056;-82
2021/06/07 06:09:28;;;;;;;4.28;3.85;;;17.80;62.80;;;;;;5027206;28;20025;-81
2021/06/07 06:11:54;;;;;;;5.25;3.65;;;17.80;62.60;;;;;;5027851;28;20649;-82
2021/06/07 06:14:20;;;;;;;4.82;3.72;;;17.90;62.70;;;;;;5027669;28;20021;-84
2021/06/07 06:16:46;;;;;;;5.35;3.53;;;18.00;62.70;;;;;;5028382;28;20120;-85
2021/06/07 06:19:12;;;;;;;4.47;3.63;;;18.10;62.70;;;;;;5027158;28;20034;-83
2021/06/07 06:21:40;;;;;;;4.03;3.28;;;18.10;62.60;;;;;;5026951;28;20273;-83
2021/06/07 06:24:11;;;;;;;5.72;4.03;;;18.20;62.60;;;;;;5027916;28;20088;-81
2021/06/07 06:26:38;;;;;;;5.28;3.80;;;18.20;62.60;;;;;;5027517;28;20037;-82
2021/06/07 06:29:05;;;;;;;5.40;3.83;;;18.20;62.60;;;;;;5027305;28;20029;-89
2021/06/07 06:31:32;;;;;;;8.20;4.38;;;18.30;62.70;;;;;;5024822;28;20188;-84
2021/06/07 06:33:58;;;;;;;6.82;4.50;;;18.30;62.70;;;;;;5051849;28;20126;-82
2021/06/07 06:36:24;;;;;;;5.68;4.30;;;18.40;62.80;;;;;;5026565;28;20111;-83
2021/06/07 06:38:50;;;;;;;4.78;4.13;;;18.50;62.90;;;;;;5026852;28;20540;-82
2021/06/07 06:41:16;;;;;;;7.38;4.18;;;18.50;62.80;;;;;;5026309;28;20504;-84
2021/06/07 06:43:42;;;;;;;4.85;4.35;;;18.60;62.90;;;;;;5027309;28;20029;-83
2021/06/07 06:46:08;;;;;;;5.30;3.90;;;18.70;63.00;;;;;;5030891;28;20136;-82
2021/06/07 06:48:34;;;;;;;8.20;4.10;;;18.80;63.00;;;;;;5028968;28;20120;-83
2021/06/07 06:51:02;;;;;;;4.43;4.03;;;19.00;63.40;;;;;;5029072;28;20047;-83
2021/06/07 06:53:28;;;;;;;4.38;3.67;;;19.20;63.60;;;;;;5028731;28;20064;-83
2021/06/07 06:55:55;;;;;;;4.70;4.28;;;19.30;63.60;;;;;;5029285;28;20025;-86
2021/06/07 06:58:22;;;;;;;5.07;3.38;;;19.60;63.80;;;;;;5011522;28;20040;-83
2021/06/07 07:00:48;;;;;;;4.70;3.78;;;19.70;63.70;;;;;;5028897;28;20029;-84
2021/06/07 07:03:17;;;;;;;4.90;3.30;;;20.00;63.90;;;;;;5047241;28;20033;-82
2021/06/07 07:05:44;;;;;;;6.18;3.40;;;20.20;63.90;;;;;;5046287;28;20033;-84
2021/06/07 07:08:11;;;;;;;4.80;3.50;;;20.40;63.70;;;;;;5028772;28;20037;-84
2021/06/07 07:10:39;;;;;;;3.53;3.08;;;20.50;63.40;;;;;;5029032;28;20028;-85
2021/06/07 07:13:06;;;;;;;3.65;3.05;;;20.60;63.30;;;;;;5028905;28;20041;-87
2021/06/07 07:15:32;;;;;;;4.55;3.38;;;20.60;63.10;;;;;;5046876;28;20044;-85
2021/06/07 07:17:58;;;;;;;4.78;3.50;;;20.60;63.00;;;;;;5047102;28;20056;-86
2021/06/07 07:20:24;;;;;;;3.95;3.35;;;20.70;63.00;;;;;;5012842;28;20052;-87
2021/06/07 07:22:51;;;;;;;5.18;3.17;;;20.60;62.70;;;;;;5028261;28;20033;-85
2021/06/07 07:25:17;;;;;;;5.43;3.53;;;20.70;62.80;;;;;;5012717;28;20025;-83
2021/06/07 07:27:43;;;;;;;3.70;3.38;;;20.60;62.60;;;;;;5046599;28;20033;-84
2021/06/07 07:30:19;;;;;;;4.18;3.67;;;20.70;62.80;;;;;;5046253;28;20124;-85
2021/06/07 07:32:47;;;;;;;4.50;3.20;;;20.70;62.60;;;;;;5012245;28;20166;-84
2021/06/07 07:35:14;;;;;;;3.47;3.17;;;20.90;62.80;;;;;;5045057;28;20228;-83
2021/06/07 07:37:41;;;;;;;4.40;2.88;;;20.90;62.70;;;;;;5046194;28;20519;-82
2021/06/07 07:40:12;;;;;;;6.25;3.15;;;21.00;62.70;;;;;;5046111;28;20154;-80
2021/06/07 07:42:39;;;;;;;3.63;2.92;;;21.10;62.70;;;;;;5046023;28;20107;-80
2021/06/07 07:45:07;;;;;;;3.60;2.95;;;21.10;62.40;;;;;;5045533;28;20495;-82
2021/06/07 07:47:34;;;;;;;3.53;3.00;;;21.20;62.40;;;;;;5046168;28;20045;-82
2021/06/07 07:50:00;;;;;;;5.50;3.70;;;21.20;62.30;;;;;;5046500;28;20064;-82
2021/06/07 07:52:27;;;;;;;2.92;2.70;;;21.20;62.20;;;;;;5028775;28;20021;-84
2021/06/07 07:54:54;;;;;;;3.95;3.20;;;21.20;62.10;;;;;;5029238;28;20489;-81
2021/06/07 07:57:22;;;;;;;4.53;3.00;;;21.20;61.90;;;;;;5046330;28;20399;-82
2021/06/07 07:59:48;;;;;;;3.20;2.53;;;21.20;61.80;;;;;;5045530;28;20025;-82
2021/06/07 08:02:14;;;;;;;4.43;2.83;;;21.20;61.80;;;;;;5012025;28;20476;-82
2021/06/07 08:04:41;;;;;;;3.70;3.15;;;21.20;61.70;;;;;;5046798;28;20022;-83
2021/06/07 08:07:08;;;;;;;3.35;3.05;;;21.20;61.60;;;;;;5028383;28;20404;-83
2021/06/07 08:09:35;;;;;;;3.72;2.83;;;21.20;61.60;;;;;;5028293;28;20028;-82
2021/06/07 08:12:02;;;;;;;6.85;3.00;;;21.30;61.60;;;;;;5050185;28;20528;-85
2021/06/07 08:14:29;;;;;;;4.32;2.83;;;21.30;61.60;;;;;;5049931;28;20067;-84
2021/06/07 08:16:55;;;;;;;3.25;2.92;;;21.30;61.50;;;;;;5032281;28;20386;-84
2021/06/07 08:19:23;;;;;;;3.90;3.00;;;21.30;61.40;;;;;;5016345;28;20029;-85
2021/06/07 08:21:50;;;;;;;4.43;3.15;;;21.30;61.40;;;;;;5049601;28;20033;-84
2021/06/07 08:24:16;;;;;;;3.33;2.85;;;21.40;61.40;;;;;;5049803;28;20025;-85
2021/06/07 08:26:42;;;;;;;3.42;2.45;;;21.40;61.40;;;;;;5049945;28;20115;-84
2021/06/07 08:29:08;;;;;;;3.42;2.80;;;21.40;61.20;;;;;;5033665;28;20025;-88
2021/06/07 08:31:35;;;;;;;4.70;2.55;;;21.40;61.20;;;;;;5015510;28;20025;-84
2021/06/07 08:34:02;;;;;;;3.85;2.70;;;21.50;61.30;;;;;;5032841;28;20048;-88
2021/06/07 08:36:28;;;;;;;2.88;2.25;;;21.50;61.20;;;;;;5032470;28;20021;-86
2021/06/07 08:38:54;;;;;;;4.00;2.67;;;21.50;61.10;;;;;;5017830;28;20083;-89
2021/06/07 08:41:20;;;;;;;4.10;2.60;;;21.60;61.20;;;;;;5033965;28;20127;-84
2021/06/07 08:43:47;;;;;;;4.85;2.58;;;21.60;61.10;;;;;;5050873;28;20088;-90
2021/06/07 08:46:13;;;;;;;4.53;2.95;;;21.60;61.00;;;;;;5051176;28;20064;-86
2021/06/07 08:48:39;;;;;;;3.22;2.53;;;21.60;60.90;;;;;;5053874;28;20041;-86
2021/06/07 08:51:06;;;;;;;2.97;2.53;;;21.70;61.00;;;;;;5051106;28;20367;-84
2021/06/07 08:53:33;;;;;;;4.72;2.80;;;21.70;60.90;;;;;;5066068;28;20082;-80
2021/06/07 08:55:59;;;;;;;3.58;2.20;;;21.70;60.80;;;;;;5050386;28;20071;-82
2021/06/07 08:58:26;;;;;;;3.20;2.50;;;21.80;60.90;;;;;;5065091;28;20086;-85
2021/06/07 09:00:52;;;;;;;2.40;2.20;;;21.80;60.90;;;;;;5052055;28;20041;-89
2021/06/07 09:03:20;;;;;;;4.53;2.78;;;21.80;60.80;;;;;;5049984;28;20029;-84
2021/06/07 09:05:55;;;;;;;3.67;2.60;;;21.80;60.80;;;;;;5031742;28;20025;-85
2021/06/07 09:08:25;;;;;;;3.50;2.13;;;21.90;60.80;;;;;;5032443;28;20076;-86
2021/06/07 09:10:53;;;;;;;3.03;2.38;;;22.00;60.90;;;;;;5015340;28;20025;-85
2021/06/07 09:13:22;;;;;;;2.67;1.95;;;22.00;60.80;;;;;;5031629;28;20037;-86
2021/06/07 09:15:50;;;;;;;3.80;2.03;;;22.00;60.70;;;;;;5015759;28;20033;-87
2021/06/07 09:18:34;;;;;;;3.33;2.17;;;22.00;60.70;;;;;;5032121;28;20395;-84
2021/06/07 09:21:13;;;;;;;4.60;2.10;;;22.10;60.80;;;;;;5050334;28;20036;-87
2021/06/07 09:23:42;;;;;;;3.97;2.10;;;22.10;60.70;;;;;;5031151;28;20037;-84
2021/06/07 09:26:28;;;;;;;2.80;2.08;;;22.20;60.80;;;;;;5031413;28;20025;-85
2021/06/07 09:28:56;;;;;;;2.40;2.08;;;22.20;60.60;;;;;;5031098;28;20092;-85
2021/06/07 09:31:29;;;;;;;2.85;2.17;;;22.20;60.50;;;;;;5031748;28;20029;-86
2021/06/07 09:33:56;;;;;;;2.13;1.92;;;22.20;60.50;;;;;;5050908;28;20040;-86
2021/06/07 09:36:24;;;;;;;7.18;2.70;;;22.20;60.50;;;;;;5031209;28;20033;-85
2021/06/07 09:39:17;;;;;;;2.35;1.90;;;22.20;60.50;;;;;;5014235;28;20033;-85
2021/06/07 09:41:49;;;;;;;2.70;2.17;;;22.20;60.50;;;;;;5048569;28;20400;-83
2021/06/07 09:44:48;;;;;;;3.05;2.42;;;22.20;60.40;;;;;;5030955;28;20029;-83
2021/06/07 09:47:27;;;;;;;4.38;2.28;;;22.20;60.40;;;;;;5027962;28;20045;-84
2021/06/07 09:49:59;;;;;;;4.00;2.15;;;22.20;60.50;;;;;;5027822;28;20067;-84
2021/06/07 09:52:29;;;;;;;2.72;2.28;;;22.30;60.60;;;;;;5010527;28;20883;-82
2021/06/07 09:55:08;;;;;;;2.67;1.85;;;22.30;60.50;;;;;;5026877;28;20022;-82
2021/06/07 09:57:48;;;;;;;4.07;2.42;;;22.40;60.60;;;;;;5027924;28;20057;-83
2021/06/07 10:00:47;;;;;;;3.63;2.05;;;22.60;60.70;;;;;;5028045;28;20094;-81
2021/06/07 10:03:23;;;;;;;2.80;1.95;;;22.80;60.90;;;;;;5024237;28;20037;-80
2021/06/07 10:06:00;;;;;;;3.03;2.20;;;23.10;61.00;;;;;;5028301;28;20029;-82
2021/06/07 10:08:41;;;;;;;2.83;2.35;;;23.30;60.90;;;;;;5027995;28;20427;-83
2021/06/07 10:11:32;;;;;;;2.33;2.10;;;23.60;61.10;;;;;;5027577;28;20028;-82
2021/06/07 10:14:10;;;;;;;2.47;2.03;;;23.80;61.10;;;;;;5027301;28;20053;-80
2021/06/07 10:16:38;;;;;;;3.25;1.95;;;24.10;61.20;;;;;;5027698;28;20030;-82
2021/06/07 10:19:07;;;;;;;4.95;1.95;;;24.40;61.30;;;;;;5026342;28;20025;-83
2021/06/07 10:21:34;;;;;;;2.85;2.17;;;24.70;61.40;;;;;;5027614;28;20032;-83
2021/06/07 10:24:00;;;;;;;2.42;2.00;;;25.00;61.40;;;;;;5028044;28;20476;-80
2021/06/07 10:26:27;;;;;;;1.60;1.50;;;25.20;61.00;;;;;;5028579;28;20036;-82
2021/06/07 10:28:56;;;;;;;2.90;2.55;;;25.40;60.70;;;;;;5027482;28;20535;-87
2021/06/07 10:31:24;;;;;;;2.58;2.08;;;25.50;60.50;;;;;;5027230;28;20585;-82
2021/06/07 10:33:58;;;;;;;2.28;1.90;;;25.60;60.40;;;;;;5026260;28;20037;-83
2021/06/07 10:36:25;;;;;;;2.72;1.98;;;25.60;60.30;;;;;;5026710;28;20025;-80
2021/06/07 10:38:53;;;;;;;3.05;1.80;;;25.70;60.20;;;;;;5027019;28;20033;-81
2021/06/07 10:41:26;;;;;;;1.95;1.80;;;25.80;60.10;;;;;;5026457;28;20041;-81
2021/06/07 10:43:54;;;;;;;;;;;26.10;60.00;;;;;;5028047;28;21026;-82
2021/06/07 10:46:35;;;;;;;2.40;1.60;;;26.50;59.90;;;;;;5032400;28;19912;-80
2021/06/07 10:49:03;;;;;;;2.05;1.52;;;26.90;59.20;;;;;;5028093;28;20080;-81
2021/06/07 10:51:34;;;;;;;2.03;1.80;;;27.20;58.70;;;;;;5029100;28;20396;-81
2021/06/07 10:54:24;;;;;;;2.40;2.10;;;27.50;58.20;;;;;;5028885;28;20071;-83
2021/06/07 10:56:51;;;;;;;2.15;1.67;;;27.80;57.90;;;;;;5046499;28;20427;-83
2021/06/07 10:59:17;;;;;;;2.65;2.00;;;27.90;57.60;;;;;;5046818;28;20138;-80
2021/06/07 11:01:49;;;;;;;3.50;2.08;;;28.10;57.30;;;;;;5046788;28;20539;-81
2021/06/07 11:04:35;;;;;;;2.90;1.73;;;28.20;57.00;;;;;;5046601;28;20051;-82
2021/06/07 11:07:09;;;;;;;1.52;1.38;;;28.30;56.90;;;;;;5047027;28;20350;-83
2021/06/07 11:09:35;;;;;;;2.50;1.70;;;28.30;56.70;;;;;;5046404;28;20388;-82
2021/06/07 11:12:04;;;;;;;1.90;1.67;;;28.30;57.30;;;;;;5028907;28;20499;-82
2021/06/07 11:14:30;;;;;;;1.98;1.73;;;28.30;56.70;;;;;;5047104;28;20480;-84
2021/06/07 11:16:57;;;;;;;1.83;1.50;;;28.40;56.60;;;;;;5047029;28;20029;-82
2021/06/07 11:19:23;;;;;;;3.58;1.55;;;28.60;56.50;;;;;;5046906;28;20029;-83
2021/06/07 11:22:05;;;;;;;2.20;1.85;;;28.80;56.20;;;;;;5046993;28;20042;-83
2021/06/07 11:24:40;;;;;;;6.80;3.63;;;29.00;55.80;;;;;;5047742;28;20029;-87
2021/06/07 11:27:27;;;;;;;5.68;3.17;;;29.20;54.30;;;;;;5014583;28;20033;-87
2021/06/07 11:30:17;;;;;;;3.83;3.17;;;29.20;52.20;;;;;;5031485;28;20044;-90
2021/06/07 11:32:43;;;;;;;5.05;2.88;;;29.00;51.40;;;;;;5014001;28;20025;-90
2021/06/07 11:35:41;;;;;;;3.88;3.13;;;28.80;51.10;;;;;;5013359;28;20035;-81
2021/06/07 11:38:32;;;;;;;3.80;2.88;;;28.40;50.90;;;;;;5013324;28;20171;-83
2021/06/07 11:41:00;;;;;;;5.57;2.90;;;28.20;51.30;;;;;;5029657;28;20036;-81
2021/06/07 11:43:45;;;;;;;5.47;2.80;;;28.20;51.70;;;;;;5028482;28;20028;-83
2021/06/07 11:46:29;;;;;;;3.80;2.50;;;28.20;51.60;;;;;;5048981;28;20488;-83
2021/06/07 11:49:14;;;;;;;2.42;1.92;;;28.30;51.60;;;;;;5050378;28;20396;-82
2021/06/07 11:51:43;;;;;;;3.28;2.33;;;28.30;51.60;;;;;;5050113;28;20060;-81
2021/06/07 11:54:27;;;;;;;3.75;2.40;;;28.50;51.60;;;;;;5033069;28;20503;-80
2021/06/07 11:56:59;;;;;;;5.20;2.33;;;28.60;51.60;;;;;;5051310;28;20525;-82
2021/06/07 11:59:27;;;;;;;5.22;2.63;;;28.70;51.60;;;;;;5050865;28;20187;-82
2021/06/07 12:01:53;;;;;;;2.70;2.30;;;28.70;51.50;;;;;;5051086;28;20037;-81
2021/06/07 12:04:27;;;;;;;4.07;2.40;;;28.90;51.60;;;;;;5049545;28;20289;-81
2021/06/07 12:06:58;;;;;;;3.97;2.30;;;28.90;51.40;;;;;;5050755;28;20029;-84
2021/06/07 12:09:25;;;;;;;4.20;2.28;;;29.00;51.40;;;;;;5049865;28;20037;-84
2021/06/07 12:11:52;;;;;;;2.40;2.20;;;29.00;51.40;;;;;;5049998;28;20041;-82
2021/06/07 12:14:31;;;;;;;2.20;1.92;;;29.10;51.50;;;;;;5049755;28;20499;-85
2021/06/07 12:17:15;;;;;;;3.33;1.98;;;29.10;51.50;;;;;;5015835;28;20021;-84
2021/06/07 12:19:42;;;;;;;1.98;1.58;;;29.10;51.60;;;;;;5031949;28;20067;-85
2021/06/07 12:22:30;;;;;;;3.67;2.08;;;29.10;51.80;;;;;;5014942;28;20025;-82
2021/06/07 12:25:02;;;;;;;3.03;2.10;;;29.10;51.80;;;;;;5044913;28;20033;-81
2021/06/07 12:30:19;;;;;;;2.72;2.15;;;29.20;51.90;;;;;;5030193;28;20502;-81
2021/06/07 12:32:49;;;;;;;2.72;1.90;;;29.20;52.50;;;;;;5031709;28;20495;-81
2021/06/07 12:35:17;;;;;;;2.78;2.13;;;29.30;52.00;;;;;;5049652;28;20404;-81
2021/06/07 12:38:14;;;;;;;2.42;1.70;;;29.30;52.30;;;;;;5030520;28;20060;-80
2021/06/07 12:40:43;;;;;;;2.35;1.98;;;29.40;52.00;;;;;;5045653;28;20052;-80
2021/06/07 12:43:09;;;;;;;2.10;1.83;;;29.60;52.00;;;;;;5031502;28;20062;-82
2021/06/07 12:45:39;;;;;;;2.00;1.80;;;29.70;52.00;;;;;;5050340;28;20080;-83
2021/06/07 12:48:22;;;;;;;2.88;1.83;;;29.80;51.90;;;;;;5031304;28;20056;-85
2021/06/07 12:50:55;;;;;;;2.28;1.80;;;29.80;51.80;;;;;;5049621;28;20519;-81
2021/06/07 12:53:23;;;;;;;2.72;2.08;;;29.90;51.80;;;;;;5049376;28;20075;-83
2021/06/07 12:55:51;;;;;;;2.05;1.80;;;30.00;51.80;;;;;;5049041;28;20394;-82
2021/06/07 12:58:23;;;;;;;2.72;1.90;;;30.00;51.80;;;;;;5048524;28;20032;-84
2021/06/07 13:00:58;;;;;;;2.50;2.00;;;30.10;51.80;;;;;;5031291;28;20037;-83